createdAt,value
2022-08-19T00:01:53.396Z,93.95
2022-08-19T00:04:22.823Z,94.73
2022-08-19T00:06:49.424Z,94.36
2022-08-19T00:09:18.314Z,94.06
2022-08-19T00:11:45.825Z,94.23
2022-08-19T00:14:14.500Z,94.71
2022-08-19T00:16:42.327Z,94.49
2022-08-19T00:19:10.631Z,94.24
2022-08-19T00:21:37.457Z,94.44
2022-08-19T00:24:04.294Z,93.89
2022-08-19T00:26:30.923Z,93.73
2022-08-19T00:28:57.475Z,93.94
2022-08-19T00:31:24.160Z,94.22
2022-08-19T00:33:50.688Z,94.42
2022-08-19T00:36:18.879Z,94.31
2022-08-19T00:38:45.764Z,95.53
2022-08-19T00:41:14.502Z,95.01
2022-08-19T00:43:41.179Z,95.33
2022-08-19T00:46:08.355Z,94.76
2022-08-19T00:48:35.958Z,95.14
2022-08-19T00:51:04.237Z,94.69
2022-08-19T00:53:33.451Z,93.06
2022-08-19T00:56:01.836Z,91.83
2022-08-19T00:58:31.750Z,92.11
2022-08-19T01:00:58.339Z,91.28
2022-08-19T01:03:24.930Z,91.68
2022-08-19T01:05:54.595Z,92.14
2022-08-19T01:08:21.779Z,91.89
2022-08-19T01:10:51.930Z,92.53
2022-08-19T01:13:23.256Z,92.77
2022-08-19T01:15:54.511Z,92.85
2022-08-19T01:18:21.683Z,93.50
2022-08-19T01:20:49.054Z,93.38
2022-08-19T01:23:17.530Z,93.75
2022-08-19T01:25:47.927Z,94.67
2022-08-19T01:28:33.618Z,93.82
2022-08-19T01:31:08.237Z,93.43
2022-08-19T01:33:35.265Z,93.42
2022-08-19T01:36:07.883Z,94.09
2022-08-19T01:38:44.491Z,93.04
2022-08-19T01:41:11.933Z,92.23
2022-08-19T01:43:39.231Z,92.70
2022-08-19T01:46:25.830Z,92.28
2022-08-19T01:48:52.369Z,91.65
2022-08-19T01:51:18.989Z,91.59
2022-08-19T01:53:50.160Z,91.76
2022-08-19T01:56:16.913Z,92.08
2022-08-19T01:58:47.901Z,92.18
2022-08-19T02:01:14.572Z,92.29
2022-08-19T02:03:41.236Z,92.32
2022-08-19T02:06:07.977Z,92.53
2022-08-19T02:08:38.027Z,92.22
2022-08-19T02:11:06.425Z,92.47
2022-08-19T02:13:33.644Z,92.94
2022-08-19T02:16:00.212Z,93.10
2022-08-19T02:18:30.976Z,92.61
2022-08-19T02:20:57.545Z,92.97
2022-08-19T02:23:24.171Z,92.72
2022-08-19T02:25:52.409Z,93.15
2022-08-19T02:28:20.428Z,92.98
2022-08-19T02:30:48.754Z,92.51
2022-08-19T02:33:15.883Z,92.77
2022-08-19T02:35:43.161Z,92.84
2022-08-19T02:38:09.850Z,92.80
2022-08-19T02:40:36.606Z,92.94
2022-08-19T02:43:04.039Z,92.80
2022-08-19T02:45:34.756Z,93.23
2022-08-19T02:48:01.449Z,93.41
2022-08-19T02:50:29.957Z,92.89
2022-08-19T02:52:56.517Z,92.53
2022-08-19T02:55:23.173Z,92.85
2022-08-19T02:57:49.899Z,92.51
2022-08-19T03:00:17.382Z,92.84
2022-08-19T03:02:45.286Z,92.60
2022-08-19T03:05:11.832Z,92.75
2022-08-19T03:07:38.546Z,92.87
2022-08-19T03:10:06.192Z,92.75
2022-08-19T03:12:36.808Z,92.45
2022-08-19T03:15:04.360Z,92.33
2022-08-19T03:17:30.893Z,93.20
2022-08-19T03:19:58.811Z,93.33
2022-08-19T03:22:25.346Z,93.00
2022-08-19T03:24:51.977Z,93.67
2022-08-19T03:27:18.557Z,93.17
2022-08-19T03:29:45.123Z,93.28
2022-08-19T03:32:31.720Z,93.42
2022-08-19T03:35:00.353Z,93.49
2022-08-19T03:37:26.897Z,93.66
2022-08-19T03:39:53.470Z,93.59
2022-08-19T03:42:38.481Z,93.75
2022-08-19T03:45:07.872Z,93.45
2022-08-19T03:47:34.506Z,93.66
2022-08-19T03:50:02.717Z,93.95
2022-08-19T03:52:29.336Z,93.89
2022-08-19T03:54:55.910Z,94.01
2022-08-19T03:57:31.744Z,94.08
2022-08-19T04:00:12.686Z,93.97
2022-08-19T04:02:39.933Z,94.15
2022-08-19T04:05:08.458Z,94.01
2022-08-19T04:07:35.111Z,94.35
2022-08-19T04:10:01.685Z,94.45
2022-08-19T04:12:29.046Z,94.71
2022-08-19T04:14:55.574Z,95.05
2022-08-19T04:17:22.135Z,94.76
2022-08-19T04:19:48.698Z,94.61
2022-08-19T04:22:16.590Z,94.73
2022-08-19T04:24:43.152Z,94.54
2022-08-19T04:27:09.703Z,94.44
2022-08-19T04:29:36.306Z,94.63
2022-08-19T04:32:09.008Z,94.59
2022-08-19T04:34:36.938Z,94.60
2022-08-19T04:37:24.915Z,94.78
2022-08-19T04:39:51.489Z,94.93
2022-08-19T04:42:30.624Z,95.05
2022-08-19T04:44:57.907Z,94.37
2022-08-19T04:47:47.908Z,94.22
2022-08-19T04:50:12.461Z,94.37
2022-08-19T04:52:40.730Z,93.88
2022-08-19T04:55:07.899Z,94.11
2022-08-19T04:57:34.480Z,94.80
2022-08-19T05:00:01.022Z,94.48
2022-08-19T05:02:27.651Z,94.22
2022-08-19T05:04:58.318Z,94.47
2022-08-19T05:07:24.862Z,93.13
2022-08-19T05:09:58.051Z,93.46
2022-08-19T05:12:29.115Z,93.70
2022-08-19T05:14:56.576Z,92.30
2022-08-19T05:17:27.639Z,92.51
2022-08-19T05:19:55.231Z,92.66
2022-08-19T05:22:21.808Z,90.87
2022-08-19T05:25:11.209Z,90.47
2022-08-19T05:27:36.378Z,89.30
2022-08-19T05:30:04.440Z,88.53
2022-08-19T05:32:31.023Z,88.55
2022-08-19T05:34:57.762Z,88.27
2022-08-19T05:37:24.338Z,88.44
2022-08-19T05:39:51.734Z,88.44
2022-08-19T05:42:18.361Z,87.61
2022-08-19T05:44:46.322Z,87.57
2022-08-19T05:47:14.502Z,87.48
2022-08-19T05:49:41.227Z,87.04
2022-08-19T05:52:10.555Z,86.85
2022-08-19T05:54:39.129Z,86.59
2022-08-19T05:57:05.670Z,86.36
2022-08-19T05:59:32.273Z,85.66
2022-08-19T06:02:00.190Z,85.27
2022-08-19T06:04:26.771Z,85.43
2022-08-19T06:06:54.359Z,85.06
2022-08-19T06:09:21.996Z,85.06
2022-08-19T06:11:54.115Z,84.61
2022-08-19T06:14:27.816Z,84.14
2022-08-19T06:16:55.131Z,83.83
2022-08-19T06:19:23.856Z,83.09
2022-08-19T06:21:51.606Z,82.86
2022-08-19T06:24:21.035Z,81.25
2022-08-19T06:29:23.532Z,81.56
2022-08-19T06:31:52.574Z,82.30
2022-08-19T06:34:20.144Z,81.01
2022-08-19T06:36:50.768Z,81.41
2022-08-19T06:39:19.598Z,81.26
2022-08-19T06:41:52.472Z,82.48
2022-08-19T06:44:22.410Z,81.39
2022-08-19T06:46:54.841Z,80.11
2022-08-19T06:49:21.970Z,80.74
2022-08-19T06:51:51.768Z,80.79
2022-08-19T06:54:20.164Z,80.07
2022-08-19T06:56:48.030Z,80.05
2022-08-19T06:59:18.259Z,79.30
2022-08-19T07:01:47.391Z,79.38
2022-08-19T07:04:15.019Z,78.59
2022-08-19T07:06:44.321Z,78.38
2022-08-19T07:09:18.376Z,78.75
2022-08-19T07:11:46.849Z,78.22
2022-08-19T07:14:19.031Z,77.59
2022-08-19T07:16:49.178Z,77.33
2022-08-19T07:19:18.844Z,75.77
2022-08-19T07:21:46.528Z,74.99
2022-08-19T07:24:14.412Z,74.01
2022-08-19T07:26:43.398Z,74.27
2022-08-19T07:29:11.439Z,75.33
2022-08-19T07:31:38.713Z,74.98
2022-08-19T07:34:07.378Z,72.18
2022-08-19T07:36:35.910Z,72.63
2022-08-19T07:39:06.922Z,72.99
2022-08-19T07:41:36.220Z,71.46
2022-08-19T07:44:04.158Z,72.31
2022-08-19T07:46:31.087Z,73.30
2022-08-19T07:48:58.202Z,73.09
2022-08-19T07:51:36.713Z,71.64
2022-08-19T07:54:04.475Z,72.22
2022-08-19T07:56:31.322Z,72.61
2022-08-19T07:58:59.236Z,72.33
2022-08-19T08:01:28.190Z,72.51
2022-08-19T08:03:56.805Z,72.85
2022-08-19T08:06:24.072Z,71.54
2022-08-19T08:08:50.660Z,72.44
2022-08-19T08:11:21.066Z,70.08
2022-08-19T08:13:48.648Z,69.75
2022-08-19T08:16:29.626Z,70.14
2022-08-19T08:18:56.741Z,71.60
2022-08-19T08:21:24.239Z,71.34
2022-08-19T08:23:53.197Z,69.04
2022-08-19T08:26:21.019Z,67.49
2022-08-19T08:28:48.062Z,66.49
2022-08-19T08:31:16.203Z,64.67
2022-08-19T08:33:44.232Z,64.33
2022-08-19T08:36:12.005Z,61.54
2022-08-19T08:38:40.312Z,60.68
2022-08-19T08:41:14.283Z,63.11
2022-08-19T08:43:41.890Z,60.84
2022-08-19T08:46:13.778Z,61.97
2022-08-19T08:48:53.598Z,60.80
2022-08-19T08:51:24.809Z,58.07
2022-08-19T08:53:57.749Z,59.39
2022-08-19T08:56:24.366Z,59.83
2022-08-19T08:58:57.942Z,57.31
2022-08-19T09:01:25.085Z,56.49
2022-08-19T09:04:02.825Z,55.73
2022-08-19T09:06:37.987Z,55.51
2022-08-19T09:09:15.313Z,57.62
2022-08-19T09:11:57.431Z,56.38
2022-08-19T09:14:52.651Z,57.02
2022-08-19T09:17:21.776Z,55.05
2022-08-19T09:19:54.661Z,56.96
2022-08-19T09:22:25.385Z,55.17
2022-08-19T09:24:53.262Z,54.26
2022-08-19T09:27:20.159Z,53.92
2022-08-19T09:29:46.727Z,52.63
2022-08-19T09:32:26.721Z,51.62
2022-08-19T09:34:55.122Z,51.47
2022-08-19T09:37:22.063Z,49.07
2022-08-19T09:39:51.975Z,50.38
2022-08-19T09:42:29.765Z,50.03
2022-08-19T09:44:57.157Z,50.21
2022-08-19T09:47:26.638Z,49.62
2022-08-19T09:49:53.227Z,49.35
2022-08-19T09:52:22.254Z,48.66
2022-08-19T09:54:52.327Z,51.64
2022-08-19T09:57:18.934Z,48.65
2022-08-19T09:59:45.543Z,48.61
2022-08-19T10:02:12.123Z,48.62
2022-08-19T10:04:39.305Z,48.83
2022-08-19T10:07:06.925Z,48.01
2022-08-19T10:09:35.099Z,49.66
2022-08-19T10:12:03.056Z,49.78
2022-08-19T10:14:30.053Z,47.35
2022-08-19T10:16:56.626Z,47.41
2022-08-19T10:19:25.755Z,48.04
2022-08-19T10:21:53.932Z,46.70
2022-08-19T10:24:20.530Z,47.98
2022-08-19T10:26:48.426Z,48.32
2022-08-19T10:29:32.049Z,45.72
2022-08-19T10:32:02.289Z,47.34
2022-08-19T10:34:31.567Z,46.07
2022-08-19T10:37:00.756Z,45.48
2022-08-19T10:39:29.036Z,46.97
2022-08-19T10:41:59.026Z,46.02
2022-08-19T10:44:26.447Z,44.83
2022-08-19T10:47:00.083Z,44.46
2022-08-19T10:49:26.719Z,45.25
2022-08-19T10:51:54.791Z,46.19
2022-08-19T10:54:32.130Z,46.64
2022-08-19T10:57:01.368Z,45.75
2022-08-19T10:59:35.268Z,44.78
2022-08-19T11:02:04.240Z,43.39
2022-08-19T11:04:30.877Z,42.23
2022-08-19T11:06:57.456Z,44.82
2022-08-19T11:09:33.345Z,44.03
2022-08-19T11:12:02.824Z,43.67
2022-08-19T11:14:34.232Z,43.10
2022-08-19T11:17:01.658Z,43.19
2022-08-19T11:19:28.227Z,43.41
2022-08-19T11:21:54.797Z,43.66
2022-08-19T11:24:26.552Z,41.95
2022-08-19T11:26:55.347Z,40.37
2022-08-19T11:29:23.363Z,42.77
2022-08-19T11:31:50.811Z,40.44
2022-08-19T11:34:21.357Z,40.34
2022-08-19T11:36:49.716Z,41.14
2022-08-19T11:39:17.981Z,39.68
2022-08-19T11:41:44.820Z,40.04
2022-08-19T11:44:11.716Z,38.96
2022-08-19T11:46:39.668Z,39.80
2022-08-19T11:49:13.249Z,38.51
2022-08-19T11:51:40.941Z,37.73
2022-08-19T11:54:07.479Z,38.77
2022-08-19T11:56:34.043Z,38.60
2022-08-19T11:59:01.882Z,37.65
2022-08-19T12:01:28.659Z,39.18
2022-08-19T12:03:57.749Z,39.60
2022-08-19T12:06:32.099Z,41.42
2022-08-19T12:09:00.122Z,38.53
2022-08-19T12:11:27.943Z,37.95
2022-08-19T12:13:55.742Z,38.75
2022-08-19T12:16:24.165Z,38.21
2022-08-19T12:18:51.178Z,37.29
2022-08-19T12:21:22.156Z,38.82
2022-08-19T12:23:53.894Z,36.54
2022-08-19T12:26:22.824Z,37.30
2022-08-19T12:28:49.889Z,38.14
2022-08-19T12:31:16.447Z,39.62
2022-08-19T12:33:43.271Z,40.12
2022-08-19T12:36:12.080Z,40.60
2022-08-19T12:38:40.303Z,40.54
2022-08-19T12:41:09.883Z,42.32
2022-08-19T12:43:37.707Z,41.54
2022-08-19T12:46:05.578Z,42.94
2022-08-19T12:48:34.445Z,43.35
2022-08-19T12:51:06.742Z,43.45
2022-08-19T12:53:33.357Z,42.42
2022-08-19T12:56:03.232Z,41.27
2022-08-19T12:58:33.987Z,39.67
2022-08-19T13:01:00.622Z,40.52
2022-08-19T13:03:27.181Z,38.94
2022-08-19T13:05:53.801Z,39.28
2022-08-19T13:08:20.343Z,38.53
2022-08-19T13:10:46.936Z,38.67
2022-08-19T13:13:14.980Z,38.42
2022-08-19T13:15:43.039Z,40.23
2022-08-19T13:18:10.938Z,39.07
2022-08-19T13:20:39.545Z,40.75
2022-08-19T13:23:06.090Z,37.95
2022-08-19T13:25:32.799Z,40.93
2022-08-19T13:28:00.849Z,40.25
2022-08-19T13:30:28.755Z,40.29
2022-08-19T13:32:55.354Z,40.26
2022-08-19T13:35:21.907Z,40.40
2022-08-19T13:37:48.550Z,39.78
2022-08-19T13:40:17.391Z,42.30
2022-08-19T13:42:45.456Z,40.82
2022-08-19T13:45:11.998Z,40.59
2022-08-19T13:47:39.994Z,40.82
2022-08-19T13:50:07.468Z,41.20
2022-08-19T13:52:34.024Z,40.17
2022-08-19T13:55:00.574Z,41.17
2022-08-19T13:57:27.632Z,41.72
2022-08-19T13:59:54.207Z,40.50
2022-08-19T14:02:20.748Z,37.84
2022-08-19T14:04:48.647Z,38.88
2022-08-19T14:07:15.174Z,37.91
2022-08-19T14:09:42.560Z,37.58
2022-08-19T14:12:09.925Z,38.15
2022-08-19T14:14:37.488Z,38.74
2022-08-19T14:17:07.247Z,38.27
2022-08-19T14:19:34.134Z,37.93
2022-08-19T14:22:02.014Z,38.22
2022-08-19T14:24:28.572Z,37.42
2022-08-19T14:26:55.142Z,37.31
2022-08-19T14:29:21.847Z,37.90
2022-08-19T14:31:48.399Z,38.52
2022-08-19T14:34:15.100Z,37.59
2022-08-19T14:36:41.787Z,38.73
2022-08-19T14:39:09.915Z,39.90
2022-08-19T14:41:36.997Z,37.58
2022-08-19T14:44:03.915Z,37.98
2022-08-19T14:46:30.439Z,37.02
2022-08-19T14:48:57.166Z,36.18
2022-08-19T14:51:26.744Z,36.65
2022-08-19T14:53:54.680Z,38.51
2022-08-19T14:56:25.192Z,38.62
2022-08-19T14:58:51.905Z,38.81
2022-08-19T15:01:19.547Z,38.14
2022-08-19T15:03:47.005Z,38.70
2022-08-19T15:06:13.777Z,38.53
2022-08-19T15:08:42.356Z,36.61
2022-08-19T15:11:10.704Z,37.72
2022-08-19T15:13:39.242Z,37.00
2022-08-19T15:16:06.430Z,35.87
2022-08-19T15:18:45.039Z,36.69
2022-08-19T15:21:11.915Z,35.00
2022-08-19T15:23:39.068Z,36.48
2022-08-19T15:26:05.785Z,37.82
2022-08-19T15:28:32.439Z,37.94
2022-08-19T15:31:00.325Z,36.57
2022-08-19T15:33:26.887Z,37.70
2022-08-19T15:35:53.471Z,37.44
2022-08-19T15:38:20.541Z,39.66
2022-08-19T15:40:47.143Z,39.20
2022-08-19T15:43:13.694Z,40.17
2022-08-19T15:45:40.286Z,39.72
2022-08-19T15:48:08.467Z,39.74
2022-08-19T15:50:35.054Z,40.16
2022-08-19T15:53:04.364Z,39.95
2022-08-19T15:55:34.575Z,40.63
2022-08-19T15:58:03.286Z,41.91
2022-08-19T16:00:29.802Z,40.89
2022-08-19T16:02:56.356Z,42.13
2022-08-19T16:05:26.690Z,42.03
2022-08-19T16:07:53.457Z,40.91
2022-08-19T16:10:26.909Z,40.72
2022-08-19T16:12:54.755Z,39.19
2022-08-19T16:15:21.614Z,40.11
2022-08-19T16:17:55.426Z,38.89
2022-08-19T16:20:25.931Z,38.95
2022-08-19T16:22:54.098Z,39.17
2022-08-19T16:25:20.706Z,40.46
2022-08-19T16:28:06.314Z,39.91
2022-08-19T16:30:33.770Z,40.96
2022-08-19T16:33:00.326Z,39.37
2022-08-19T16:35:28.227Z,40.71
2022-08-19T16:37:54.902Z,40.71
2022-08-19T16:40:21.714Z,41.15
2022-08-19T16:42:48.338Z,40.18
2022-08-19T16:45:15.181Z,40.65
2022-08-19T16:47:41.771Z,41.38
2022-08-19T16:50:08.936Z,41.00
2022-08-19T16:52:36.862Z,40.81
2022-08-19T16:55:04.590Z,42.20
2022-08-19T16:57:31.198Z,42.15
2022-08-19T16:59:57.902Z,42.08
2022-08-19T17:02:29.476Z,41.83
2022-08-19T17:04:58.158Z,41.99
2022-08-19T17:07:26.106Z,42.64
2022-08-19T17:09:54.052Z,42.07
2022-08-19T17:12:21.884Z,42.65
2022-08-19T17:14:48.414Z,43.49
2022-08-19T17:17:14.993Z,43.53
2022-08-19T17:19:43.543Z,43.98
2022-08-19T17:22:11.501Z,44.75
2022-08-19T17:24:38.359Z,45.68
2022-08-19T17:27:08.648Z,46.94
2022-08-19T17:29:35.638Z,46.22
2022-08-19T17:32:02.556Z,46.40
2022-08-19T17:34:29.100Z,47.55
2022-08-19T17:36:55.652Z,48.83
2022-08-19T17:39:22.230Z,47.17
2022-08-19T17:41:48.781Z,47.24
2022-08-19T17:44:16.682Z,46.88
2022-08-19T17:46:43.197Z,47.87
2022-08-19T17:49:09.721Z,48.69
2022-08-19T17:51:43.734Z,47.42
2022-08-19T17:54:12.755Z,48.55
2022-08-19T17:56:39.379Z,49.08
2022-08-19T17:59:06.359Z,49.24
2022-08-19T18:01:52.373Z,48.64
2022-08-19T18:04:21.132Z,50.24
2022-08-19T18:06:53.004Z,50.00
2022-08-19T18:09:23.770Z,50.74
2022-08-19T18:11:52.659Z,50.53
2022-08-19T18:14:20.103Z,50.32
2022-08-19T18:16:48.004Z,51.48
2022-08-19T18:19:14.539Z,51.27
2022-08-19T18:21:41.087Z,52.26
2022-08-19T18:24:07.790Z,53.87
2022-08-19T18:26:34.360Z,53.78
2022-08-19T18:29:00.917Z,54.36
2022-08-19T18:31:27.461Z,55.07
2022-08-19T18:33:55.437Z,55.13
2022-08-19T18:36:50.137Z,54.11
2022-08-19T18:39:08.621Z,55.76
2022-08-19T18:41:35.354Z,55.82
2022-08-19T18:44:02.120Z,56.30
2022-08-19T18:46:29.062Z,55.97
2022-08-19T18:49:03.093Z,55.59
2022-08-19T18:51:29.636Z,58.81
2022-08-19T18:53:56.258Z,58.82
2022-08-19T18:56:22.792Z,59.08
2022-08-19T18:58:49.367Z,58.85
2022-08-19T19:01:18.956Z,59.62
2022-08-19T19:03:47.502Z,60.02
2022-08-19T19:06:18.266Z,60.60
2022-08-19T19:08:44.834Z,60.80
2022-08-19T19:11:11.425Z,61.64
2022-08-19T19:13:39.479Z,61.83
2022-08-19T19:16:06.651Z,62.53
2022-08-19T19:18:33.255Z,63.33
2022-08-19T19:20:59.876Z,62.10
2022-08-19T19:23:27.791Z,62.53
2022-08-19T19:25:54.897Z,63.40
2022-08-19T19:28:23.531Z,64.68
2022-08-19T19:30:50.060Z,64.11
2022-08-19T19:33:16.600Z,64.03
2022-08-19T19:35:43.544Z,64.82
2022-08-19T19:38:12.370Z,65.31
2022-08-19T19:40:40.297Z,65.31
2022-08-19T19:43:06.852Z,66.09
2022-08-19T19:45:33.444Z,66.17
2022-08-19T19:48:00.024Z,66.93
2022-08-19T19:50:27.124Z,67.22
2022-08-19T19:52:53.670Z,66.96
2022-08-19T19:55:20.294Z,68.07
2022-08-19T19:57:48.730Z,68.20
2022-08-19T20:00:17.437Z,68.64
2022-08-19T20:02:47.889Z,68.35
2022-08-19T20:05:17.344Z,68.23
2022-08-19T20:07:43.899Z,68.97
2022-08-19T20:10:10.513Z,68.63
2022-08-19T20:12:37.119Z,69.45
2022-08-19T20:15:05.538Z,69.34
2022-08-19T20:17:32.127Z,69.20
2022-08-19T20:19:58.683Z,71.07
2022-08-19T20:22:25.511Z,69.96
2022-08-19T20:24:52.077Z,71.64
2022-08-19T20:27:18.790Z,71.71
2022-08-19T20:29:47.543Z,71.35
2022-08-19T20:32:16.383Z,70.59
2022-08-19T20:34:42.948Z,72.28
2022-08-19T20:37:09.781Z,70.62
2022-08-19T20:39:36.614Z,72.04
2022-08-19T20:42:03.453Z,70.97
2022-08-19T20:44:29.987Z,71.68
2022-08-19T20:47:00.567Z,71.82
2022-08-19T20:49:31.618Z,72.47
2022-08-19T20:51:58.191Z,72.32
2022-08-19T20:54:24.851Z,71.94
2022-08-19T20:56:51.431Z,72.25
2022-08-19T20:59:18.054Z,72.67
2022-08-19T21:01:44.630Z,73.19
2022-08-19T21:04:11.206Z,74.25
2022-08-19T21:06:39.074Z,74.00
2022-08-19T21:09:08.832Z,74.20
2022-08-19T21:11:35.851Z,74.11
2022-08-19T21:14:02.475Z,75.25
2022-08-19T21:16:29.051Z,74.77
2022-08-19T21:18:55.582Z,74.98
2022-08-19T21:21:22.127Z,75.95
2022-08-19T21:23:49.992Z,74.62
2022-08-19T21:26:16.832Z,75.06
2022-08-19T21:28:43.463Z,75.27
2022-08-19T21:31:10.263Z,75.54
2022-08-19T21:33:38.202Z,75.41
2022-08-19T21:36:05.415Z,75.24
2022-08-19T21:38:31.977Z,75.40
2022-08-19T21:41:04.203Z,76.14
2022-08-19T21:43:33.684Z,76.63
2022-08-19T21:46:00.228Z,76.35
2022-08-19T21:48:27.451Z,77.35
2022-08-19T21:50:53.999Z,75.84
2022-08-19T21:53:22.749Z,77.00
2022-08-19T21:55:53.543Z,77.16
2022-08-19T21:58:28.200Z,76.99
2022-08-19T22:00:57.418Z,77.77
2022-08-19T22:03:24.022Z,78.14
2022-08-19T22:05:50.765Z,78.08
2022-08-19T22:08:17.329Z,78.23
2022-08-19T22:10:45.095Z,78.22
2022-08-19T22:13:13.397Z,77.81
2022-08-19T22:15:41.522Z,78.53
2022-08-19T22:18:08.062Z,79.21
2022-08-19T22:20:34.692Z,78.95
2022-08-19T22:23:04.555Z,79.56
2022-08-19T22:25:34.846Z,78.58
2022-08-19T22:28:02.744Z,80.00
2022-08-19T22:30:33.639Z,81.02
2022-08-19T22:33:04.473Z,80.20
2022-08-19T22:35:33.582Z,79.65
2022-08-19T22:38:01.232Z,80.28
2022-08-19T22:40:29.875Z,80.23
2022-08-19T22:42:58.074Z,80.62
2022-08-19T22:45:24.757Z,81.40
2022-08-19T22:47:51.464Z,81.03
2022-08-19T22:50:19.607Z,81.59
2022-08-19T22:52:51.787Z,82.09
2022-08-19T22:55:19.143Z,81.76
2022-08-19T22:57:45.721Z,82.16
2022-08-19T23:00:13.261Z,82.35
2022-08-19T23:02:51.591Z,82.47
2022-08-19T23:05:22.397Z,82.28
2022-08-19T23:07:52.359Z,82.14
2022-08-19T23:10:26.904Z,82.74
2022-08-19T23:12:56.618Z,83.20
2022-08-19T23:15:25.507Z,82.70
2022-08-19T23:17:53.029Z,82.78
2022-08-19T23:20:22.651Z,82.98
2022-08-19T23:22:49.190Z,83.19
2022-08-19T23:25:17.873Z,83.11
2022-08-19T23:27:44.689Z,83.04
2022-08-19T23:30:11.651Z,83.37
2022-08-19T23:32:38.227Z,83.43
2022-08-19T23:35:05.481Z,83.67
2022-08-19T23:37:33.454Z,83.49
2022-08-19T23:40:00.044Z,84.42
2022-08-19T23:42:26.687Z,84.45
2022-08-19T23:44:53.211Z,83.66
2022-08-19T23:47:20.465Z,84.22
2022-08-19T23:49:46.998Z,84.96
2022-08-19T23:52:13.521Z,85.54
2022-08-19T23:54:43.681Z,85.74
2022-08-19T23:57:14.209Z,85.51
2022-08-19T23:59:42.135Z,86.24
